sensor_id;sensor_type;location;lat;lon;timestamp;P1;durP1;ratioP1;P2;durP2;ratioP2
7203;SDS011;3643;52.460;13.322;2023-01-05T00:01:38;16.37;;;3.60;;
7203;SDS011;3643;52.460;13.322;2023-01-05T00:04:06;14.23;;;3.33;;
7203;SDS011;3643;52.460;13.322;2023-01-05T00:06:35;13.43;;;3.40;;
7203;SDS011;3643;52.460;13.322;2023-01-05T00:09:05;15.90;;;3.50;;
7203;SDS011;3643;52.460;13.322;2023-01-05T00:11:34;15.03;;;3.10;;
7203;SDS011;3643;52.460;13.322;2023-01-05T00:14:21;21.87;;;3.77;;
7203;SDS011;3643;52.460;13.322;2023-01-05T00:17:10;15.80;;;3.30;;
7203;SDS011;3643;52.460;13.322;2023-01-05T00:19:57;20.07;;;4.20;;
7203;SDS011;3643;52.460;13.322;2023-01-05T00:22:44;19.07;;;3.70;;
7203;SDS011;3643;52.460;13.322;2023-01-05T00:25:15;16.83;;;3.10;;
7203;SDS011;3643;52.460;13.322;2023-01-05T00:27:45;24.27;;;3.67;;
7203;SDS011;3643;52.460;13.322;2023-01-05T00:30:18;16.70;;;3.83;;
7203;SDS011;3643;52.460;13.322;2023-01-05T00:32:49;14.00;;;3.17;;
7203;SDS011;3643;52.460;13.322;2023-01-05T00:35:17;12.47;;;3.77;;
7203;SDS011;3643;52.460;13.322;2023-01-05T00:37:47;16.10;;;3.43;;
7203;SDS011;3643;52.460;13.322;2023-01-05T00:40:17;14.27;;;3.50;;
7203;SDS011;3643;52.460;13.322;2023-01-05T00:42:47;16.97;;;3.90;;
7203;SDS011;3643;52.460;13.322;2023-01-05T00:45:17;19.73;;;3.90;;
7203;SDS011;3643;52.460;13.322;2023-01-05T00:47:49;22.83;;;4.40;;
7203;SDS011;3643;52.460;13.322;2023-01-05T00:50:19;19.00;;;3.73;;
7203;SDS011;3643;52.460;13.322;2023-01-05T00:52:48;16.00;;;3.63;;
7203;SDS011;3643;52.460;13.322;2023-01-05T00:55:17;23.00;;;4.00;;
7203;SDS011;3643;52.460;13.322;2023-01-05T00:57:46;20.33;;;4.03;;
7203;SDS011;3643;52.460;13.322;2023-01-05T01:00:15;21.43;;;3.93;;
7203;SDS011;3643;52.460;13.322;2023-01-05T01:02:45;15.67;;;4.07;;
7203;SDS011;3643;52.460;13.322;2023-01-05T01:05:15;19.20;;;3.80;;
7203;SDS011;3643;52.460;13.322;2023-01-05T01:07:43;20.70;;;4.90;;
7203;SDS011;3643;52.460;13.322;2023-01-05T01:10:14;21.30;;;3.93;;
7203;SDS011;3643;52.460;13.322;2023-01-05T01:12:42;22.07;;;3.93;;
7203;SDS011;3643;52.460;13.322;2023-01-05T01:15:12;26.47;;;4.50;;
7203;SDS011;3643;52.460;13.322;2023-01-05T01:17:40;17.80;;;3.53;;
7203;SDS011;3643;52.460;13.322;2023-01-05T01:20:08;21.77;;;4.47;;
7203;SDS011;3643;52.460;13.322;2023-01-05T01:22:38;15.07;;;3.77;;
7203;SDS011;3643;52.460;13.322;2023-01-05T01:25:07;22.03;;;3.90;;
7203;SDS011;3643;52.460;13.322;2023-01-05T01:27:36;25.57;;;3.70;;
7203;SDS011;3643;52.460;13.322;2023-01-05T01:30:04;17.63;;;3.70;;
7203;SDS011;3643;52.460;13.322;2023-01-05T01:32:34;19.57;;;3.57;;
7203;SDS011;3643;52.460;13.322;2023-01-05T01:35:02;18.60;;;3.67;;
7203;SDS011;3643;52.460;13.322;2023-01-05T01:37:31;13.83;;;3.80;;
7203;SDS011;3643;52.460;13.322;2023-01-05T01:40:01;14.90;;;3.47;;
7203;SDS011;3643;52.460;13.322;2023-01-05T01:42:29;14.37;;;3.33;;
7203;SDS011;3643;52.460;13.322;2023-01-05T01:44:58;19.30;;;3.60;;
7203;SDS011;3643;52.460;13.322;2023-01-05T01:47:29;17.00;;;3.60;;
7203;SDS011;3643;52.460;13.322;2023-01-05T01:50:02;15.10;;;3.70;;
7203;SDS011;3643;52.460;13.322;2023-01-05T01:52:35;20.00;;;3.50;;
7203;SDS011;3643;52.460;13.322;2023-01-05T01:55:07;16.80;;;3.90;;
7203;SDS011;3643;52.460;13.322;2023-01-05T01:57:36;16.57;;;3.37;;
7203;SDS011;3643;52.460;13.322;2023-01-05T02:00:07;20.93;;;4.43;;
7203;SDS011;3643;52.460;13.322;2023-01-05T02:02:36;17.07;;;3.63;;
7203;SDS011;3643;52.460;13.322;2023-01-05T02:05:06;24.20;;;3.77;;
7203;SDS011;3643;52.460;13.322;2023-01-05T02:07:39;20.03;;;3.53;;
7203;SDS011;3643;52.460;13.322;2023-01-05T02:10:13;15.87;;;3.70;;
7203;SDS011;3643;52.460;13.322;2023-01-05T02:12:49;17.43;;;3.70;;
7203;SDS011;3643;52.460;13.322;2023-01-05T02:15:31;15.50;;;3.90;;
7203;SDS011;3643;52.460;13.322;2023-01-05T02:18:11;19.17;;;3.63;;
7203;SDS011;3643;52.460;13.322;2023-01-05T02:20:59;20.30;;;4.60;;
7203;SDS011;3643;52.460;13.322;2023-01-05T02:23:50;16.47;;;3.30;;
7203;SDS011;3643;52.460;13.322;2023-01-05T02:27:02;13.77;;;3.43;;
7203;SDS011;3643;52.460;13.322;2023-01-05T02:29:59;13.97;;;4.10;;
7203;SDS011;3643;52.460;13.322;2023-01-05T02:33:01;18.23;;;4.23;;
7203;SDS011;3643;52.460;13.322;2023-01-05T02:35:37;20.00;;;3.13;;
7203;SDS011;3643;52.460;13.322;2023-01-05T02:38:14;20.07;;;3.30;;
7203;SDS011;3643;52.460;13.322;2023-01-05T02:40:50;19.80;;;3.37;;
7203;SDS011;3643;52.460;13.322;2023-01-05T02:43:23;14.83;;;3.20;;
7203;SDS011;3643;52.460;13.322;2023-01-05T02:45:53;13.70;;;3.20;;
7203;SDS011;3643;52.460;13.322;2023-01-05T02:48:23;15.30;;;3.40;;
7203;SDS011;3643;52.460;13.322;2023-01-05T02:50:52;14.40;;;3.30;;
7203;SDS011;3643;52.460;13.322;2023-01-05T02:53:26;14.40;;;3.70;;
7203;SDS011;3643;52.460;13.322;2023-01-05T02:55:59;18.00;;;2.97;;
7203;SDS011;3643;52.460;13.322;2023-01-05T02:58:33;12.70;;;2.80;;
7203;SDS011;3643;52.460;13.322;2023-01-05T03:01:04;17.77;;;2.70;;
7203;SDS011;3643;52.460;13.322;2023-01-05T03:03:39;16.70;;;3.03;;
7203;SDS011;3643;52.460;13.322;2023-01-05T03:06:10;15.70;;;2.77;;
7203;SDS011;3643;52.460;13.322;2023-01-05T03:08:46;9.30;;;2.63;;
7203;SDS011;3643;52.460;13.322;2023-01-05T03:11:18;8.20;;;3.00;;
7203;SDS011;3643;52.460;13.322;2023-01-05T03:14:07;18.17;;;2.83;;
7203;SDS011;3643;52.460;13.322;2023-01-05T03:16:40;22.53;;;3.17;;
7203;SDS011;3643;52.460;13.322;2023-01-05T03:19:14;16.33;;;2.90;;
7203;SDS011;3643;52.460;13.322;2023-01-05T03:22:06;22.53;;;2.70;;
7203;SDS011;3643;52.460;13.322;2023-01-05T03:24:57;11.57;;;2.70;;
7203;SDS011;3643;52.460;13.322;2023-01-05T03:27:44;12.70;;;2.50;;
7203;SDS011;3643;52.460;13.322;2023-01-05T03:30:35;14.07;;;2.60;;
7203;SDS011;3643;52.460;13.322;2023-01-05T03:33:30;11.70;;;2.90;;
7203;SDS011;3643;52.460;13.322;2023-01-05T03:36:26;11.53;;;2.40;;
7203;SDS011;3643;52.460;13.322;2023-01-05T03:38:57;18.37;;;2.63;;
7203;SDS011;3643;52.460;13.322;2023-01-05T03:41:28;6.50;;;2.40;;
7203;SDS011;3643;52.460;13.322;2023-01-05T03:43:58;10.00;;;2.50;;
7203;SDS011;3643;52.460;13.322;2023-01-05T03:46:26;15.10;;;2.70;;
7203;SDS011;3643;52.460;13.322;2023-01-05T03:48:56;13.97;;;2.60;;
7203;SDS011;3643;52.460;13.322;2023-01-05T03:51:26;16.20;;;2.60;;
7203;SDS011;3643;52.460;13.322;2023-01-05T03:53:54;7.70;;;2.07;;
7203;SDS011;3643;52.460;13.322;2023-01-05T03:56:23;8.47;;;2.30;;
7203;SDS011;3643;52.460;13.322;2023-01-05T03:58:51;10.17;;;2.30;;
7203;SDS011;3643;52.460;13.322;2023-01-05T04:01:19;6.30;;;1.67;;
7203;SDS011;3643;52.460;13.322;2023-01-05T04:03:48;9.53;;;2.30;;
7203;SDS011;3643;52.460;13.322;2023-01-05T04:06:16;10.60;;;2.57;;
7203;SDS011;3643;52.460;13.322;2023-01-05T04:08:46;7.33;;;2.30;;
7203;SDS011;3643;52.460;13.322;2023-01-05T04:11:15;7.00;;;2.43;;
7203;SDS011;3643;52.460;13.322;2023-01-05T04:13:45;6.03;;;2.20;;
7203;SDS011;3643;52.460;13.322;2023-01-05T04:16:14;12.30;;;2.20;;
7203;SDS011;3643;52.460;13.322;2023-01-05T04:18:43;9.90;;;2.53;;
7203;SDS011;3643;52.460;13.322;2023-01-05T04:21:12;12.97;;;2.40;;
7203;SDS011;3643;52.460;13.322;2023-01-05T04:23:41;10.77;;;2.53;;
7203;SDS011;3643;52.460;13.322;2023-01-05T04:26:10;7.57;;;2.10;;
7203;SDS011;3643;52.460;13.322;2023-01-05T04:28:39;9.00;;;2.50;;
7203;SDS011;3643;52.460;13.322;2023-01-05T04:31:07;8.27;;;2.20;;
7203;SDS011;3643;52.460;13.322;2023-01-05T04:33:35;7.00;;;2.50;;
7203;SDS011;3643;52.460;13.322;2023-01-05T04:36:05;8.60;;;2.40;;
7203;SDS011;3643;52.460;13.322;2023-01-05T04:38:34;8.47;;;2.47;;
7203;SDS011;3643;52.460;13.322;2023-01-05T04:41:03;10.63;;;2.80;;
7203;SDS011;3643;52.460;13.322;2023-01-05T04:43:33;9.93;;;2.23;;
7203;SDS011;3643;52.460;13.322;2023-01-05T04:46:01;8.70;;;2.13;;
7203;SDS011;3643;52.460;13.322;2023-01-05T04:48:30;5.03;;;2.20;;
7203;SDS011;3643;52.460;13.322;2023-01-05T04:50:58;7.93;;;1.97;;
7203;SDS011;3643;52.460;13.322;2023-01-05T04:53:27;6.83;;;2.20;;
7203;SDS011;3643;52.460;13.322;2023-01-05T04:55:55;5.37;;;2.33;;
7203;SDS011;3643;52.460;13.322;2023-01-05T04:58:23;10.23;;;2.47;;
7203;SDS011;3643;52.460;13.322;2023-01-05T05:00:53;10.43;;;2.70;;
7203;SDS011;3643;52.460;13.322;2023-01-05T05:03:21;6.83;;;2.53;;
7203;SDS011;3643;52.460;13.322;2023-01-05T05:05:58;11.73;;;2.50;;
7203;SDS011;3643;52.460;13.322;2023-01-05T05:08:26;10.17;;;2.60;;
7203;SDS011;3643;52.460;13.322;2023-01-05T05:10:54;10.07;;;2.53;;
7203;SDS011;3643;52.460;13.322;2023-01-05T05:13:22;8.70;;;2.50;;
7203;SDS011;3643;52.460;13.322;2023-01-05T05:15:51;7.50;;;2.50;;
7203;SDS011;3643;52.460;13.322;2023-01-05T05:18:20;11.43;;;2.70;;
7203;SDS011;3643;52.460;13.322;2023-01-05T05:20:50;14.77;;;3.20;;
7203;SDS011;3643;52.460;13.322;2023-01-05T05:23:19;8.97;;;2.80;;
7203;SDS011;3643;52.460;13.322;2023-01-05T05:25:48;10.37;;;2.73;;
7203;SDS011;3643;52.460;13.322;2023-01-05T05:28:17;11.97;;;2.80;;
7203;SDS011;3643;52.460;13.322;2023-01-05T05:30:47;12.13;;;2.87;;
7203;SDS011;3643;52.460;13.322;2023-01-05T05:33:17;10.60;;;2.60;;
7203;SDS011;3643;52.460;13.322;2023-01-05T05:35:45;13.50;;;2.60;;
7203;SDS011;3643;52.460;13.322;2023-01-05T05:38:13;17.23;;;2.90;;
7203;SDS011;3643;52.460;13.322;2023-01-05T05:40:41;14.93;;;2.83;;
7203;SDS011;3643;52.460;13.322;2023-01-05T05:43:09;8.27;;;2.60;;
7203;SDS011;3643;52.460;13.322;2023-01-05T05:45:37;11.00;;;3.17;;
7203;SDS011;3643;52.460;13.322;2023-01-05T05:48:13;13.20;;;2.40;;
7203;SDS011;3643;52.460;13.322;2023-01-05T05:50:42;15.07;;;2.53;;
7203;SDS011;3643;52.460;13.322;2023-01-05T05:53:10;12.97;;;3.57;;
7203;SDS011;3643;52.460;13.322;2023-01-05T05:55:38;13.17;;;2.60;;
7203;SDS011;3643;52.460;13.322;2023-01-05T05:58:07;14.77;;;2.43;;
7203;SDS011;3643;52.460;13.322;2023-01-05T06:00:35;11.43;;;2.50;;
7203;SDS011;3643;52.460;13.322;2023-01-05T06:03:03;8.97;;;2.20;;
7203;SDS011;3643;52.460;13.322;2023-01-05T06:05:31;12.63;;;2.63;;
7203;SDS011;3643;52.460;13.322;2023-01-05T06:08:01;9.73;;;2.77;;
7203;SDS011;3643;52.460;13.322;2023-01-05T06:10:30;10.80;;;2.20;;
7203;SDS011;3643;52.460;13.322;2023-01-05T06:12:58;7.47;;;2.23;;
7203;SDS011;3643;52.460;13.322;2023-01-05T06:15:26;11.30;;;2.50;;
7203;SDS011;3643;52.460;13.322;2023-01-05T06:17:54;10.73;;;2.60;;
7203;SDS011;3643;52.460;13.322;2023-01-05T06:20:22;15.33;;;2.43;;
7203;SDS011;3643;52.460;13.322;2023-01-05T06:22:50;9.00;;;2.60;;
7203;SDS011;3643;52.460;13.322;2023-01-05T06:25:20;6.00;;;2.30;;
7203;SDS011;3643;52.460;13.322;2023-01-05T06:27:48;7.93;;;2.60;;
7203;SDS011;3643;52.460;13.322;2023-01-05T06:30:16;5.43;;;2.23;;
7203;SDS011;3643;52.460;13.322;2023-01-05T06:32:44;10.80;;;2.07;;
7203;SDS011;3643;52.460;13.322;2023-01-05T06:35:12;6.40;;;2.10;;
7203;SDS011;3643;52.460;13.322;2023-01-05T06:37:40;3.77;;;1.97;;
7203;SDS011;3643;52.460;13.322;2023-01-05T06:40:09;3.77;;;1.63;;
7203;SDS011;3643;52.460;13.322;2023-01-05T06:42:40;7.43;;;1.53;;
7203;SDS011;3643;52.460;13.322;2023-01-05T06:45:11;7.10;;;1.97;;
7203;SDS011;3643;52.460;13.322;2023-01-05T06:47:42;3.37;;;1.40;;
7203;SDS011;3643;52.460;13.322;2023-01-05T06:50:10;2.33;;;1.40;;
7203;SDS011;3643;52.460;13.322;2023-01-05T06:52:40;2.73;;;1.60;;
7203;SDS011;3643;52.460;13.322;2023-01-05T06:55:09;2.07;;;1.40;;
7203;SDS011;3643;52.460;13.322;2023-01-05T06:57:40;5.50;;;1.60;;
7203;SDS011;3643;52.460;13.322;2023-01-05T07:00:09;5.90;;;1.73;;
7203;SDS011;3643;52.460;13.322;2023-01-05T07:02:38;5.23;;;1.60;;
7203;SDS011;3643;52.460;13.322;2023-01-05T07:05:06;2.47;;;1.70;;
7203;SDS011;3643;52.460;13.322;2023-01-05T07:07:35;1.73;;;1.40;;
7203;SDS011;3643;52.460;13.322;2023-01-05T07:10:04;5.57;;;1.67;;
7203;SDS011;3643;52.460;13.322;2023-01-05T07:12:33;3.87;;;1.70;;
7203;SDS011;3643;52.460;13.322;2023-01-05T07:15:02;2.87;;;1.17;;
7203;SDS011;3643;52.460;13.322;2023-01-05T07:17:32;2.87;;;1.37;;
7203;SDS011;3643;52.460;13.322;2023-01-05T07:20:00;3.40;;;1.73;;
7203;SDS011;3643;52.460;13.322;2023-01-05T07:22:28;2.87;;;1.40;;
7203;SDS011;3643;52.460;13.322;2023-01-05T07:24:57;4.17;;;1.30;;
7203;SDS011;3643;52.460;13.322;2023-01-05T07:27:25;6.73;;;1.57;;
7203;SDS011;3643;52.460;13.322;2023-01-05T07:29:53;1.97;;;1.27;;
7203;SDS011;3643;52.460;13.322;2023-01-05T07:32:23;4.50;;;1.20;;
7203;SDS011;3643;52.460;13.322;2023-01-05T07:34:51;2.17;;;1.37;;
7203;SDS011;3643;52.460;13.322;2023-01-05T07:37:21;3.73;;;1.33;;
7203;SDS011;3643;52.460;13.322;2023-01-05T07:39:50;2.50;;;1.23;;
7203;SDS011;3643;52.460;13.322;2023-01-05T07:42:19;2.00;;;1.23;;
7203;SDS011;3643;52.460;13.322;2023-01-05T07:44:47;2.57;;;1.47;;
7203;SDS011;3643;52.460;13.322;2023-01-05T07:47:15;3.60;;;1.20;;
7203;SDS011;3643;52.460;13.322;2023-01-05T07:49:45;1.83;;;1.20;;
7203;SDS011;3643;52.460;13.322;2023-01-05T07:52:13;1.87;;;1.10;;
7203;SDS011;3643;52.460;13.322;2023-01-05T07:54:42;9.43;;;6.17;;
7203;SDS011;3643;52.460;13.322;2023-01-05T07:57:10;37.03;;;24.17;;
7203;SDS011;3643;52.460;13.322;2023-01-05T07:59:38;3.80;;;2.90;;
7203;SDS011;3643;52.460;13.322;2023-01-05T08:02:07;1.50;;;1.10;;
7203;SDS011;3643;52.460;13.322;2023-01-05T08:04:36;4.80;;;1.20;;
7203;SDS011;3643;52.460;13.322;2023-01-05T08:07:05;2.40;;;1.23;;
7203;SDS011;3643;52.460;13.322;2023-01-05T08:09:37;1.30;;;1.00;;
7203;SDS011;3643;52.460;13.322;2023-01-05T08:12:22;3.67;;;1.00;;
7203;SDS011;3643;52.460;13.322;2023-01-05T08:14:51;0.80;;;0.80;;
7203;SDS011;3643;52.460;13.322;2023-01-05T08:17:19;0.93;;;0.90;;
7203;SDS011;3643;52.460;13.322;2023-01-05T08:19:47;3.10;;;1.10;;
7203;SDS011;3643;52.460;13.322;2023-01-05T08:22:17;3.40;;;1.10;;
7203;SDS011;3643;52.460;13.322;2023-01-05T08:24:45;1.60;;;0.97;;
7203;SDS011;3643;52.460;13.322;2023-01-05T08:27:13;2.23;;;1.00;;
7203;SDS011;3643;52.460;13.322;2023-01-05T08:29:41;1.17;;;0.83;;
7203;SDS011;3643;52.460;13.322;2023-01-05T08:32:11;2.30;;;1.00;;
7203;SDS011;3643;52.460;13.322;2023-01-05T08:34:39;2.03;;;0.97;;
7203;SDS011;3643;52.460;13.322;2023-01-05T08:37:07;1.33;;;1.00;;
7203;SDS011;3643;52.460;13.322;2023-01-05T08:39:37;2.43;;;0.80;;
7203;SDS011;3643;52.460;13.322;2023-01-05T08:42:05;2.60;;;0.87;;
7203;SDS011;3643;52.460;13.322;2023-01-05T08:44:33;1.17;;;0.87;;
7203;SDS011;3643;52.460;13.322;2023-01-05T08:47:01;0.80;;;0.77;;
7203;SDS011;3643;52.460;13.322;2023-01-05T08:49:29;2.40;;;0.80;;
7203;SDS011;3643;52.460;13.322;2023-01-05T08:51:57;1.00;;;0.90;;
7203;SDS011;3643;52.460;13.322;2023-01-05T08:54:25;2.77;;;0.80;;
7203;SDS011;3643;52.460;13.322;2023-01-05T08:56:55;3.90;;;0.90;;
7203;SDS011;3643;52.460;13.322;2023-01-05T08:59:23;5.43;;;1.00;;
7203;SDS011;3643;52.460;13.322;2023-01-05T09:01:51;1.30;;;1.10;;
7203;SDS011;3643;52.460;13.322;2023-01-05T09:04:20;2.27;;;0.93;;
7203;SDS011;3643;52.460;13.322;2023-01-05T09:06:48;1.17;;;0.90;;
7203;SDS011;3643;52.460;13.322;2023-01-05T09:09:16;2.67;;;0.97;;
7203;SDS011;3643;52.460;13.322;2023-01-05T09:11:45;3.60;;;0.97;;
7203;SDS011;3643;52.460;13.322;2023-01-05T09:14:14;2.53;;;0.83;;
7203;SDS011;3643;52.460;13.322;2023-01-05T09:16:42;4.67;;;1.20;;
7203;SDS011;3643;52.460;13.322;2023-01-05T09:19:31;3.90;;;1.10;;
7203;SDS011;3643;52.460;13.322;2023-01-05T09:21:59;3.53;;;1.20;;
7203;SDS011;3643;52.460;13.322;2023-01-05T09:24:27;2.80;;;1.33;;
7203;SDS011;3643;52.460;13.322;2023-01-05T09:26:55;2.53;;;1.20;;
7203;SDS011;3643;52.460;13.322;2023-01-05T09:29:25;2.70;;;1.20;;
7203;SDS011;3643;52.460;13.322;2023-01-05T09:31:53;3.50;;;1.40;;
7203;SDS011;3643;52.460;13.322;2023-01-05T09:34:21;4.10;;;1.00;;
7203;SDS011;3643;52.460;13.322;2023-01-05T09:36:50;3.47;;;1.10;;
7203;SDS011;3643;52.460;13.322;2023-01-05T09:39:18;2.73;;;0.90;;
7203;SDS011;3643;52.460;13.322;2023-01-05T09:41:47;1.63;;;0.90;;
7203;SDS011;3643;52.460;13.322;2023-01-05T09:44:21;2.53;;;1.00;;
7203;SDS011;3643;52.460;13.322;2023-01-05T09:46:59;1.33;;;0.87;;
7203;SDS011;3643;52.460;13.322;2023-01-05T09:49:31;2.90;;;1.20;;
7203;SDS011;3643;52.460;13.322;2023-01-05T09:52:02;1.60;;;0.93;;
7203;SDS011;3643;52.460;13.322;2023-01-05T09:54:36;4.20;;;1.30;;
7203;SDS011;3643;52.460;13.322;2023-01-05T09:57:06;1.97;;;1.30;;
7203;SDS011;3643;52.460;13.322;2023-01-05T09:59:42;2.43;;;1.20;;
7203;SDS011;3643;52.460;13.322;2023-01-05T10:02:17;3.90;;;1.23;;
7203;SDS011;3643;52.460;13.322;2023-01-05T10:04:51;4.57;;;1.40;;
7203;SDS011;3643;52.460;13.322;2023-01-05T10:07:25;2.87;;;1.47;;
7203;SDS011;3643;52.460;13.322;2023-01-05T10:10:02;4.03;;;1.20;;
7203;SDS011;3643;52.460;13.322;2023-01-05T10:12:35;2.90;;;1.07;;
7203;SDS011;3643;52.460;13.322;2023-01-05T10:15:31;2.93;;;1.50;;
7203;SDS011;3643;52.460;13.322;2023-01-05T10:18:08;3.60;;;1.10;;
7203;SDS011;3643;52.460;13.322;2023-01-05T10:20:49;2.47;;;1.20;;
7203;SDS011;3643;52.460;13.322;2023-01-05T10:23:41;5.10;;;1.87;;
7203;SDS011;3643;52.460;13.322;2023-01-05T10:26:20;7.20;;;4.20;;
7203;SDS011;3643;52.460;13.322;2023-01-05T10:28:55;5.23;;;1.50;;
7203;SDS011;3643;52.460;13.322;2023-01-05T10:31:32;3.23;;;1.27;;
7203;SDS011;3643;52.460;13.322;2023-01-05T10:34:13;3.13;;;1.10;;
7203;SDS011;3643;52.460;13.322;2023-01-05T10:36:53;3.07;;;1.27;;
7203;SDS011;3643;52.460;13.322;2023-01-05T10:42:37;3.27;;;1.10;;
7203;SDS011;3643;52.460;13.322;2023-01-05T10:45:16;3.37;;;1.47;;
7203;SDS011;3643;52.460;13.322;2023-01-05T10:47:48;3.83;;;1.17;;
7203;SDS011;3643;52.460;13.322;2023-01-05T10:50:21;2.77;;;1.03;;
7203;SDS011;3643;52.460;13.322;2023-01-05T10:52:57;3.67;;;1.40;;
7203;SDS011;3643;52.460;13.322;2023-01-05T10:55:25;5.07;;;1.33;;
7203;SDS011;3643;52.460;13.322;2023-01-05T10:57:56;2.93;;;1.20;;
7203;SDS011;3643;52.460;13.322;2023-01-05T11:00:37;2.13;;;1.20;;
7203;SDS011;3643;52.460;13.322;2023-01-05T11:03:11;2.43;;;1.10;;
7203;SDS011;3643;52.460;13.322;2023-01-05T11:05:41;1.93;;;1.07;;
7203;SDS011;3643;52.460;13.322;2023-01-05T11:08:14;1.87;;;1.20;;
7203;SDS011;3643;52.460;13.322;2023-01-05T11:10:48;3.40;;;1.47;;
7203;SDS011;3643;52.460;13.322;2023-01-05T11:13:21;3.63;;;1.37;;
7203;SDS011;3643;52.460;13.322;2023-01-05T11:16:07;4.83;;;1.53;;
7203;SDS011;3643;52.460;13.322;2023-01-05T11:18:44;4.27;;;1.30;;
7203;SDS011;3643;52.460;13.322;2023-01-05T11:21:15;3.20;;;1.73;;
7203;SDS011;3643;52.460;13.322;2023-01-05T11:23:45;5.77;;;1.40;;
7203;SDS011;3643;52.460;13.322;2023-01-05T11:26:31;5.17;;;1.30;;
7203;SDS011;3643;52.460;13.322;2023-01-05T11:29:02;6.37;;;1.43;;
7203;SDS011;3643;52.460;13.322;2023-01-05T11:31:40;3.23;;;1.17;;
7203;SDS011;3643;52.460;13.322;2023-01-05T11:34:19;3.03;;;1.10;;
7203;SDS011;3643;52.460;13.322;2023-01-05T11:37:19;2.50;;;1.30;;
7203;SDS011;3643;52.460;13.322;2023-01-05T11:39:51;3.53;;;1.23;;
7203;SDS011;3643;52.460;13.322;2023-01-05T11:42:27;5.00;;;1.20;;
7203;SDS011;3643;52.460;13.322;2023-01-05T11:44:57;2.77;;;1.13;;
7203;SDS011;3643;52.460;13.322;2023-01-05T11:47:29;3.73;;;1.23;;
7203;SDS011;3643;52.460;13.322;2023-01-05T11:50:15;4.23;;;1.30;;
7203;SDS011;3643;52.460;13.322;2023-01-05T11:52:48;3.07;;;1.07;;
7203;SDS011;3643;52.460;13.322;2023-01-05T11:55:27;3.20;;;1.30;;
7203;SDS011;3643;52.460;13.322;2023-01-05T11:58:21;5.90;;;1.30;;
7203;SDS011;3643;52.460;13.322;2023-01-05T12:04:02;7.73;;;1.50;;
7203;SDS011;3643;52.460;13.322;2023-01-05T12:06:40;3.10;;;1.30;;
7203;SDS011;3643;52.460;13.322;2023-01-05T12:09:31;4.87;;;1.50;;
7203;SDS011;3643;52.460;13.322;2023-01-05T12:12:05;5.83;;;1.30;;
7203;SDS011;3643;52.460;13.322;2023-01-05T12:14:50;4.77;;;1.27;;
7203;SDS011;3643;52.460;13.322;2023-01-05T12:17:32;4.60;;;1.37;;
7203;SDS011;3643;52.460;13.322;2023-01-05T12:20:18;4.53;;;1.77;;
7203;SDS011;3643;52.460;13.322;2023-01-05T12:23:14;3.50;;;1.30;;
7203;SDS011;3643;52.460;13.322;2023-01-05T12:25:52;1.50;;;1.03;;
7203;SDS011;3643;52.460;13.322;2023-01-05T12:28:31;4.07;;;1.37;;
7203;SDS011;3643;52.460;13.322;2023-01-05T12:31:39;5.33;;;1.43;;
7203;SDS011;3643;52.460;13.322;2023-01-05T12:37:46;4.67;;;1.30;;
7203;SDS011;3643;52.460;13.322;2023-01-05T12:40:34;2.57;;;1.23;;
7203;SDS011;3643;52.460;13.322;2023-01-05T12:43:12;3.40;;;1.27;;
7203;SDS011;3643;52.460;13.322;2023-01-05T12:48:39;3.07;;;1.23;;
7203;SDS011;3643;52.460;13.322;2023-01-05T12:51:11;3.13;;;1.20;;
7203;SDS011;3643;52.460;13.322;2023-01-05T12:53:47;3.20;;;1.10;;
7203;SDS011;3643;52.460;13.322;2023-01-05T12:56:24;2.00;;;0.90;;
7203;SDS011;3643;52.460;13.322;2023-01-05T12:59:05;2.83;;;1.20;;
7203;SDS011;3643;52.460;13.322;2023-01-05T13:01:41;3.93;;;1.17;;
7203;SDS011;3643;52.460;13.322;2023-01-05T13:04:16;2.47;;;1.13;;
7203;SDS011;3643;52.460;13.322;2023-01-05T13:07:09;4.47;;;1.20;;
7203;SDS011;3643;52.460;13.322;2023-01-05T13:09:41;2.70;;;1.30;;
7203;SDS011;3643;52.460;13.322;2023-01-05T13:12:12;5.07;;;1.10;;
7203;SDS011;3643;52.460;13.322;2023-01-05T13:14:43;3.83;;;1.30;;
7203;SDS011;3643;52.460;13.322;2023-01-05T13:17:21;6.30;;;1.60;;
7203;SDS011;3643;52.460;13.322;2023-01-05T13:19:54;6.20;;;1.27;;
7203;SDS011;3643;52.460;13.322;2023-01-05T13:22:30;3.83;;;1.23;;
7203;SDS011;3643;52.460;13.322;2023-01-05T13:25:02;2.97;;;1.40;;
7203;SDS011;3643;52.460;13.322;2023-01-05T13:27:41;5.20;;;1.23;;
7203;SDS011;3643;52.460;13.322;2023-01-05T13:30:11;7.10;;;1.40;;
7203;SDS011;3643;52.460;13.322;2023-01-05T13:32:53;4.23;;;1.27;;
7203;SDS011;3643;52.460;13.322;2023-01-05T13:41:42;2.93;;;1.13;;
7203;SDS011;3643;52.460;13.322;2023-01-05T13:44:35;3.53;;;1.20;;
7203;SDS011;3643;52.460;13.322;2023-01-05T13:47:18;5.13;;;1.33;;
7203;SDS011;3643;52.460;13.322;2023-01-05T13:50:22;6.27;;;1.30;;
7203;SDS011;3643;52.460;13.322;2023-01-05T13:53:08;4.90;;;1.50;;
7203;SDS011;3643;52.460;13.322;2023-01-05T13:55:43;2.70;;;1.50;;
7203;SDS011;3643;52.460;13.322;2023-01-05T13:58:30;3.77;;;1.30;;
7203;SDS011;3643;52.460;13.322;2023-01-05T14:01:06;7.03;;;1.50;;
7203;SDS011;3643;52.460;13.322;2023-01-05T14:03:38;3.47;;;1.50;;
7203;SDS011;3643;52.460;13.322;2023-01-05T14:06:13;2.20;;;1.10;;
7203;SDS011;3643;52.460;13.322;2023-01-05T14:08:46;4.13;;;1.27;;
7203;SDS011;3643;52.460;13.322;2023-01-05T14:11:19;3.30;;;1.20;;
7203;SDS011;3643;52.460;13.322;2023-01-05T14:13:50;4.17;;;1.73;;
7203;SDS011;3643;52.460;13.322;2023-01-05T14:19:22;6.23;;;1.50;;
7203;SDS011;3643;52.460;13.322;2023-01-05T14:22:00;3.50;;;1.37;;
7203;SDS011;3643;52.460;13.322;2023-01-05T14:24:31;3.90;;;1.50;;
7203;SDS011;3643;52.460;13.322;2023-01-05T14:27:06;5.97;;;1.30;;
7203;SDS011;3643;52.460;13.322;2023-01-05T14:32:52;2.20;;;1.00;;
7203;SDS011;3643;52.460;13.322;2023-01-05T14:35:23;7.50;;;1.57;;
7203;SDS011;3643;52.460;13.322;2023-01-05T14:37:58;3.63;;;1.40;;
7203;SDS011;3643;52.460;13.322;2023-01-05T14:40:33;4.23;;;1.33;;
7203;SDS011;3643;52.460;13.322;2023-01-05T14:43:06;1.63;;;1.20;;
7203;SDS011;3643;52.460;13.322;2023-01-05T14:45:55;3.90;;;1.20;;
7203;SDS011;3643;52.460;13.322;2023-01-05T14:48:29;6.17;;;1.53;;
7203;SDS011;3643;52.460;13.322;2023-01-05T14:51:09;3.07;;;1.43;;
7203;SDS011;3643;52.460;13.322;2023-01-05T14:53:50;3.83;;;1.10;;
7203;SDS011;3643;52.460;13.322;2023-01-05T14:56:21;2.33;;;1.30;;
7203;SDS011;3643;52.460;13.322;2023-01-05T14:58:55;5.33;;;1.50;;
7203;SDS011;3643;52.460;13.322;2023-01-05T15:01:29;7.10;;;1.40;;
7203;SDS011;3643;52.460;13.322;2023-01-05T15:04:04;2.83;;;1.37;;
7203;SDS011;3643;52.460;13.322;2023-01-05T15:06:39;5.40;;;1.50;;
7203;SDS011;3643;52.460;13.322;2023-01-05T15:09:20;1.80;;;1.13;;
7203;SDS011;3643;52.460;13.322;2023-01-05T15:12:00;2.90;;;1.50;;
7203;SDS011;3643;52.460;13.322;2023-01-05T15:14:59;5.10;;;1.50;;
7203;SDS011;3643;52.460;13.322;2023-01-05T15:17:58;4.57;;;1.30;;
7203;SDS011;3643;52.460;13.322;2023-01-05T15:24:05;3.20;;;1.43;;
7203;SDS011;3643;52.460;13.322;2023-01-05T15:27:01;3.53;;;1.43;;
7203;SDS011;3643;52.460;13.322;2023-01-05T15:29:55;2.50;;;1.20;;
7203;SDS011;3643;52.460;13.322;2023-01-05T15:32:41;3.27;;;1.17;;
7203;SDS011;3643;52.460;13.322;2023-01-05T15:35:13;3.87;;;1.13;;
7203;SDS011;3643;52.460;13.322;2023-01-05T15:37:45;2.13;;;1.07;;
7203;SDS011;3643;52.460;13.322;2023-01-05T15:40:26;2.33;;;1.50;;
7203;SDS011;3643;52.460;13.322;2023-01-05T15:42:58;2.40;;;1.20;;
7203;SDS011;3643;52.460;13.322;2023-01-05T15:45:31;4.63;;;1.10;;
7203;SDS011;3643;52.460;13.322;2023-01-05T15:48:05;2.27;;;1.00;;
7203;SDS011;3643;52.460;13.322;2023-01-05T15:50:38;2.60;;;1.10;;
7203;SDS011;3643;52.460;13.322;2023-01-05T15:53:23;2.87;;;1.10;;
7203;SDS011;3643;52.460;13.322;2023-01-05T15:55:55;1.73;;;1.30;;
7203;SDS011;3643;52.460;13.322;2023-01-05T15:58:25;3.07;;;1.40;;
7203;SDS011;3643;52.460;13.322;2023-01-05T16:00:59;5.00;;;1.20;;
7203;SDS011;3643;52.460;13.322;2023-01-05T16:03:30;3.13;;;1.40;;
7203;SDS011;3643;52.460;13.322;2023-01-05T16:06:02;3.93;;;1.60;;